createdAt,value
2023-02-04T00:02:53.511Z,66.39
2023-02-04T00:05:58.703Z,66.27
2023-02-04T00:09:05.307Z,65.96
2023-02-04T00:12:11.679Z,66.36
2023-02-04T00:18:33.868Z,66.20
2023-02-04T00:21:39.969Z,66.16
2023-02-04T00:24:50.017Z,66.44
2023-02-04T00:31:16.951Z,64.98
2023-02-04T00:34:22.884Z,64.21
2023-02-04T00:37:26.746Z,63.64
2023-02-04T00:40:31.801Z,64.05
2023-02-04T00:43:36.579Z,63.72
2023-02-04T00:46:44.276Z,64.18
2023-02-04T00:49:49.607Z,63.77
2023-02-04T00:52:54.628Z,63.86
2023-02-04T00:55:57.860Z,64.34
2023-02-04T00:59:02.799Z,64.46
2023-02-04T01:02:07.104Z,64.67
2023-02-04T01:05:12.646Z,63.38
2023-02-04T01:08:17.173Z,63.61
2023-02-04T01:11:23.437Z,63.44
2023-02-04T01:14:27.326Z,63.74
2023-02-04T01:17:35.026Z,64.08
2023-02-04T01:20:39.196Z,64.04
2023-02-04T01:23:42.604Z,64.81
2023-02-04T01:26:46.626Z,64.94
2023-02-04T01:29:50.703Z,65.22
2023-02-04T01:36:12.875Z,64.36
2023-02-04T01:39:23.430Z,63.94
2023-02-04T01:45:46.412Z,62.40
2023-02-04T01:48:51.589Z,61.10
2023-02-04T01:52:04.880Z,60.89
2023-02-04T01:58:38.585Z,62.20
2023-02-04T02:01:50.235Z,61.60
2023-02-04T02:04:57.949Z,61.13
2023-02-04T02:08:04.011Z,61.92
2023-02-04T02:11:08.504Z,61.85
2023-02-04T02:14:17.967Z,61.83
2023-02-04T02:17:21.956Z,61.37
2023-02-04T02:20:37.088Z,60.89
2023-02-04T02:24:29.334Z,60.20
2023-02-04T02:27:33.488Z,59.96
2023-02-04T02:30:40.570Z,59.40
2023-02-04T02:34:09.267Z,59.45
2023-02-04T02:37:20.453Z,59.09
2023-02-04T02:40:26.089Z,58.77
2023-02-04T02:46:54.810Z,58.25
2023-02-04T02:50:10.277Z,57.99
2023-02-04T02:53:23.804Z,57.49
2023-02-04T02:56:30.200Z,56.99
2023-02-04T02:59:35.488Z,56.50
2023-02-04T03:02:46.673Z,55.51
2023-02-04T03:05:57.482Z,55.26
2023-02-04T03:09:03.250Z,55.15
2023-02-04T03:15:31.421Z,54.80
2023-02-04T03:18:50.639Z,54.50
2023-02-04T03:22:53.663Z,54.55
2023-02-04T03:26:36.285Z,53.42
2023-02-04T03:29:52.982Z,53.45
2023-02-04T03:49:57.648Z,53.34
2023-02-04T03:53:49.456Z,52.75
2023-02-04T04:07:09.409Z,50.85
2023-02-04T04:10:17.105Z,50.22
2023-02-04T04:16:51.511Z,49.33
2023-02-04T04:19:58.244Z,49.37
2023-02-04T04:26:26.105Z,49.40
2023-02-04T04:30:06.142Z,48.87
2023-02-04T04:36:38.207Z,48.61
2023-02-04T04:39:46.168Z,48.57
2023-02-04T04:46:19.617Z,47.70
2023-02-04T04:52:43.593Z,46.67
2023-02-04T04:55:49.118Z,46.14
2023-02-04T04:59:06.262Z,46.35
2023-02-04T05:09:12.468Z,44.67
2023-02-04T05:15:38.853Z,44.57
2023-02-04T05:19:05.778Z,43.48
2023-02-04T05:22:14.655Z,43.01
2023-02-04T05:28:35.862Z,42.91
2023-02-04T05:38:23.880Z,41.80
2023-02-04T05:48:45.436Z,41.92
2023-02-04T05:55:18.850Z,41.97
2023-02-04T05:58:23.855Z,41.36
2023-02-04T06:01:28.493Z,42.18
2023-02-04T06:04:33.006Z,42.68
2023-02-04T06:07:37.755Z,41.73
2023-02-04T06:10:46.827Z,41.04
2023-02-04T06:23:45.581Z,40.52
2023-02-04T06:34:27.461Z,40.76
2023-02-04T06:37:32.402Z,39.02
2023-02-04T06:40:37.375Z,39.40
2023-02-04T06:43:43.372Z,38.80
2023-02-04T06:50:07.906Z,39.11
2023-02-04T06:56:49.396Z,37.94
2023-02-04T07:03:26.688Z,37.84
2023-02-04T07:06:32.120Z,37.53
2023-02-04T07:13:00.700Z,36.85
2023-02-04T07:16:04.732Z,36.34
2023-02-04T07:19:09.639Z,36.51
2023-02-04T07:25:31.830Z,37.06
2023-02-04T07:28:40.212Z,37.00
2023-02-04T07:31:44.476Z,36.41
2023-02-04T07:34:53.720Z,36.97
2023-02-04T07:38:02.248Z,36.83
2023-02-04T07:57:39.982Z,36.97
2023-02-04T08:00:45.014Z,36.83
2023-02-04T08:07:15.343Z,37.11
2023-02-04T08:10:22.270Z,36.94
2023-02-04T08:21:07.080Z,37.14
2023-02-04T08:24:18.854Z,36.75
2023-02-04T08:34:09.106Z,37.76
2023-02-04T08:40:33.654Z,38.32
2023-02-04T08:43:40.967Z,38.85
2023-02-04T09:03:31.913Z,40.83
2023-02-04T09:17:12.404Z,41.34
2023-02-04T09:20:27.022Z,41.43
2023-02-04T09:26:56.939Z,42.51
2023-02-04T09:33:21.481Z,44.14
2023-02-04T09:36:31.376Z,44.89
2023-02-04T09:39:39.529Z,45.33
2023-02-04T09:42:46.833Z,45.97
2023-02-04T09:45:59.099Z,45.29
2023-02-04T10:06:54.222Z,46.96
2023-02-04T10:10:01.609Z,47.12
2023-02-04T10:13:14.922Z,47.57
2023-02-04T10:23:00.458Z,48.96
2023-02-04T10:26:05.101Z,49.20
2023-02-04T10:29:17.873Z,49.68
2023-02-04T10:32:38.800Z,49.79
2023-02-04T10:39:22.414Z,50.51
2023-02-04T10:42:31.449Z,50.80
2023-02-04T10:45:35.817Z,51.13
2023-02-04T10:52:05.985Z,51.54
2023-02-04T11:02:45.192Z,52.03
2023-02-04T11:05:55.662Z,52.53
2023-02-04T11:09:02.204Z,52.02
2023-02-04T11:12:11.802Z,52.27
2023-02-04T11:15:41.161Z,52.76
2023-02-04T11:18:52.729Z,52.77
2023-02-04T11:22:31.109Z,53.19
2023-02-04T11:25:46.747Z,53.43
2023-02-04T11:29:11.904Z,53.67
2023-02-04T11:32:41.655Z,53.32
2023-02-04T11:39:30.590Z,53.52
2023-02-04T11:42:43.537Z,53.68
2023-02-04T11:49:22.647Z,53.50
2023-02-04T11:55:50.738Z,53.32
2023-02-04T12:02:25.290Z,53.17
2023-02-04T12:05:55.845Z,52.91
2023-02-04T12:09:20.950Z,53.18
2023-02-04T12:16:15.223Z,54.07
2023-02-04T12:19:30.684Z,55.02
2023-02-04T12:22:36.456Z,54.84
2023-02-04T12:25:41.980Z,54.94
2023-02-04T12:32:42.064Z,55.36
2023-02-04T12:35:51.984Z,55.50
2023-02-04T12:42:20.042Z,55.99
2023-02-04T12:45:25.580Z,55.87
2023-02-04T12:48:31.729Z,56.29
2023-02-04T12:51:36.331Z,56.56
2023-02-04T12:54:43.790Z,56.51
2023-02-04T12:57:48.929Z,56.79
2023-02-04T13:00:54.431Z,57.31
2023-02-04T13:04:00.714Z,57.06
2023-02-04T13:07:07.151Z,57.33
2023-02-04T13:10:14.187Z,57.50
2023-02-04T13:13:20.639Z,58.15
2023-02-04T13:16:29.860Z,57.91
2023-02-04T13:19:36.278Z,58.02
2023-02-04T13:22:43.128Z,58.05
2023-02-04T13:25:49.158Z,57.73
2023-02-04T13:28:52.900Z,58.00
2023-02-04T13:32:01.102Z,58.22
2023-02-04T13:35:04.643Z,58.17
2023-02-04T13:38:10.476Z,58.55
2023-02-04T13:41:14.845Z,58.73
2023-02-04T13:44:23.053Z,58.76
2023-02-04T13:47:40.294Z,58.96
2023-02-04T13:50:45.114Z,59.04
2023-02-04T13:53:52.534Z,59.48
2023-02-04T13:57:01.016Z,59.24
2023-02-04T14:00:12.089Z,59.58
2023-02-04T14:06:51.103Z,59.27
2023-02-04T14:09:54.442Z,58.69
2023-02-04T14:13:01.892Z,58.81
2023-02-04T14:16:11.388Z,58.96
2023-02-04T14:19:20.730Z,59.09
2023-02-04T14:22:24.701Z,59.28
2023-02-04T14:25:33.012Z,60.29
2023-02-04T14:28:38.961Z,60.68
2023-02-04T14:31:45.494Z,61.11
2023-02-04T14:34:56.616Z,61.06
2023-02-04T14:38:02.353Z,61.28
2023-02-04T14:41:08.383Z,61.29
2023-02-04T14:44:20.206Z,61.36
2023-02-04T14:47:24.573Z,61.26
2023-02-04T14:50:31.863Z,61.81
2023-02-04T14:53:37.563Z,60.37
2023-02-04T14:56:43.494Z,58.69
2023-02-04T14:59:47.823Z,59.37
2023-02-04T15:06:19.370Z,59.97
2023-02-04T15:09:33.800Z,60.02
2023-02-04T15:12:46.339Z,59.97
2023-02-04T15:15:52.911Z,59.81
2023-02-04T15:18:57.534Z,59.21
2023-02-04T15:22:05.798Z,59.52
2023-02-04T15:25:12.167Z,59.09
2023-02-04T15:28:23.849Z,59.78
2023-02-04T15:31:29.802Z,59.94
2023-02-04T15:34:36.639Z,60.17
2023-02-04T15:37:50.739Z,61.29
2023-02-04T15:40:59.578Z,60.80
2023-02-04T15:44:06.348Z,60.75
2023-02-04T15:47:14.336Z,61.02
2023-02-04T15:50:19.127Z,60.67
2023-02-04T15:53:28.688Z,60.86
2023-02-04T15:56:40.408Z,60.50
2023-02-04T15:59:52.311Z,59.15
2023-02-04T16:06:15.721Z,59.33
2023-02-04T16:09:51.485Z,59.26
2023-02-04T16:13:07.160Z,59.70
2023-02-04T16:16:23.306Z,59.93
2023-02-04T16:22:49.294Z,60.51
2023-02-04T16:25:56.274Z,59.14
2023-02-04T16:32:18.836Z,59.25
2023-02-04T16:35:23.155Z,59.16
2023-02-04T16:38:34.855Z,58.82
2023-02-04T16:41:48.002Z,57.63
2023-02-04T16:44:55.340Z,57.32
2023-02-04T16:48:03.078Z,57.43
2023-02-04T16:51:08.670Z,57.76
2023-02-04T16:54:13.764Z,57.58
2023-02-04T16:57:22.091Z,57.42
2023-02-04T17:00:28.153Z,57.79
2023-02-04T17:03:32.191Z,57.28
2023-02-04T17:06:38.659Z,57.84
2023-02-04T17:09:43.921Z,58.72
2023-02-04T17:12:48.337Z,58.48
2023-02-04T17:19:09.778Z,58.87
2023-02-04T17:22:16.154Z,59.33
2023-02-04T17:25:24.555Z,59.48
2023-02-04T17:28:28.628Z,58.19
2023-02-04T17:31:37.920Z,57.99
2023-02-04T17:34:43.207Z,57.24
2023-02-04T17:37:47.802Z,57.31
2023-02-04T17:40:52.506Z,57.19
2023-02-04T17:43:56.067Z,57.15
2023-02-04T17:47:00.025Z,57.87
2023-02-04T17:50:07.473Z,57.55
2023-02-04T17:53:23.318Z,58.31
2023-02-04T17:56:29.010Z,57.36
2023-02-04T17:59:39.850Z,57.30
2023-02-04T18:02:51.669Z,57.61
2023-02-04T18:06:00.338Z,57.09
2023-02-04T18:09:18.808Z,56.93
2023-02-04T18:12:23.844Z,57.78
2023-02-04T18:15:32.375Z,57.19
2023-02-04T18:18:41.493Z,57.13
2023-02-04T18:21:46.927Z,57.60
2023-02-04T18:24:52.405Z,56.54
2023-02-04T18:28:05.341Z,57.69
2023-02-04T18:31:46.392Z,57.88
2023-02-04T18:34:53.549Z,57.32
2023-02-04T18:37:59.066Z,58.02
2023-02-04T18:41:33.484Z,56.27
2023-02-04T18:44:41.633Z,56.25
2023-02-04T18:47:47.910Z,56.13
2023-02-04T18:51:01.434Z,57.02
2023-02-04T18:54:29.173Z,57.10
2023-02-04T18:57:41.565Z,56.83
2023-02-04T19:00:50.579Z,57.12
2023-02-04T19:04:00.622Z,56.70
2023-02-04T19:10:46.328Z,56.82
2023-02-04T19:13:52.987Z,57.83
2023-02-04T19:17:23.299Z,59.13
2023-02-04T19:20:28.014Z,57.82
2023-02-04T19:23:42.136Z,57.31
2023-02-04T19:27:04.373Z,56.55
2023-02-04T19:30:31.775Z,56.78
2023-02-04T19:36:57.596Z,56.17
2023-02-04T19:40:04.361Z,55.61
2023-02-04T19:43:20.720Z,55.09
2023-02-04T19:49:43.622Z,55.16
2023-02-04T19:52:58.590Z,55.26
2023-02-04T19:56:03.204Z,55.14
2023-02-04T19:59:42.603Z,55.27
2023-02-04T20:06:25.935Z,55.00
2023-02-04T20:09:32.039Z,54.99
2023-02-04T20:15:59.043Z,56.39
2023-02-04T20:19:15.958Z,56.79
2023-02-04T20:22:22.305Z,56.77
2023-02-04T20:25:48.029Z,56.98
2023-02-04T20:29:07.810Z,56.37
2023-02-04T20:32:27.327Z,55.54
2023-02-04T20:35:33.551Z,54.88
2023-02-04T20:42:00.640Z,54.52
2023-02-04T20:45:18.744Z,54.11
2023-02-04T20:48:41.859Z,54.47
2023-02-04T20:51:48.755Z,54.49
2023-02-04T20:58:23.692Z,54.08
2023-02-04T21:01:37.019Z,54.78
2023-02-04T21:04:49.437Z,54.69
2023-02-04T21:08:04.808Z,54.73
2023-02-04T21:11:15.786Z,54.40
2023-02-04T21:17:44.968Z,54.85
2023-02-04T21:20:49.656Z,54.87
2023-02-04T21:23:56.084Z,54.60
2023-02-04T21:27:00.661Z,55.13
2023-02-04T21:30:07.397Z,55.54
2023-02-04T21:33:17.205Z,55.43
2023-02-04T21:36:24.211Z,55.46
2023-02-04T21:39:29.084Z,56.24
2023-02-04T21:42:46.328Z,56.19
2023-02-04T21:45:51.771Z,56.25
2023-02-04T21:48:56.066Z,56.34
2023-02-04T21:52:04.774Z,56.15
2023-02-04T21:55:14.696Z,56.14
2023-02-04T21:58:19.396Z,55.93
2023-02-04T22:01:25.523Z,56.12
2023-02-04T22:04:29.880Z,55.37
2023-02-04T22:07:33.035Z,54.48
2023-02-04T22:10:38.462Z,54.43
2023-02-04T22:14:04.793Z,54.34
2023-02-04T22:17:09.526Z,54.08
2023-02-04T22:26:52.611Z,54.60
2023-02-04T22:29:58.244Z,54.49
2023-02-04T22:36:22.076Z,54.74
2023-02-04T22:39:26.942Z,54.61
2023-02-04T22:45:46.804Z,54.54
2023-02-04T22:49:00.253Z,54.78
2023-02-04T22:52:05.177Z,54.24
2023-02-04T22:58:35.283Z,54.46
2023-02-04T23:01:40.367Z,54.73
2023-02-04T23:04:49.096Z,54.70
2023-02-04T23:07:54.120Z,55.19
2023-02-04T23:11:03.091Z,55.57
2023-02-04T23:14:07.624Z,55.22
2023-02-04T23:17:12.285Z,55.19
2023-02-04T23:20:16.433Z,54.95
2023-02-04T23:23:20.377Z,54.85
2023-02-04T23:26:29.250Z,54.97
2023-02-04T23:29:36.624Z,54.75
2023-02-04T23:32:41.365Z,54.47
2023-02-04T23:35:48.252Z,54.31
2023-02-04T23:42:09.850Z,54.37
2023-02-04T23:49:26.029Z,54.80
2023-02-04T23:52:31.174Z,54.76
2023-02-04T23:55:37.233Z,54.63
2023-02-04T23:58:41.544Z,54.85
